sensor_id;sensor_type;location;lat;lon;timestamp;temperature;humidity
37052;DHT22;22964;52.272;13.356;2023-08-30T00:00:37;19.50;75.70
37052;DHT22;22964;52.272;13.356;2023-08-30T00:03:03;19.50;75.60
37052;DHT22;22964;52.272;13.356;2023-08-30T00:05:28;19.50;75.60
37052;DHT22;22964;52.272;13.356;2023-08-30T00:07:54;19.50;75.60
37052;DHT22;22964;52.272;13.356;2023-08-30T00:10:20;19.50;75.70
37052;DHT22;22964;52.272;13.356;2023-08-30T00:12:46;19.40;75.70
37052;DHT22;22964;52.272;13.356;2023-08-30T00:15:11;19.40;75.80
37052;DHT22;22964;52.272;13.356;2023-08-30T00:17:37;19.40;75.90
37052;DHT22;22964;52.272;13.356;2023-08-30T00:20:03;19.40;76.00
37052;DHT22;22964;52.272;13.356;2023-08-30T00:22:29;19.40;76.10
37052;DHT22;22964;52.272;13.356;2023-08-30T00:24:54;19.40;76.10
37052;DHT22;22964;52.272;13.356;2023-08-30T00:27:20;19.40;76.10
37052;DHT22;22964;52.272;13.356;2023-08-30T00:29:46;19.40;76.10
37052;DHT22;22964;52.272;13.356;2023-08-30T00:32:12;19.40;76.20
37052;DHT22;22964;52.272;13.356;2023-08-30T00:34:38;19.30;76.10
37052;DHT22;22964;52.272;13.356;2023-08-30T00:37:04;19.30;76.10
37052;DHT22;22964;52.272;13.356;2023-08-30T00:39:30;19.30;75.90
37052;DHT22;22964;52.272;13.356;2023-08-30T00:41:56;19.30;75.90
37052;DHT22;22964;52.272;13.356;2023-08-30T00:44:22;19.30;75.90
37052;DHT22;22964;52.272;13.356;2023-08-30T00:46:48;19.30;76.00
37052;DHT22;22964;52.272;13.356;2023-08-30T00:49:14;19.30;76.00
37052;DHT22;22964;52.272;13.356;2023-08-30T00:51:40;19.30;76.00
37052;DHT22;22964;52.272;13.356;2023-08-30T00:54:06;19.30;75.90
37052;DHT22;22964;52.272;13.356;2023-08-30T00:56:32;19.30;75.90
37052;DHT22;22964;52.272;13.356;2023-08-30T00:58:59;19.20;75.90
37052;DHT22;22964;52.272;13.356;2023-08-30T01:01:26;19.20;75.90
37052;DHT22;22964;52.272;13.356;2023-08-30T01:03:52;19.20;75.90
37052;DHT22;22964;52.272;13.356;2023-08-30T01:06:19;19.10;75.80
37052;DHT22;22964;52.272;13.356;2023-08-30T01:08:45;19.10;75.90
37052;DHT22;22964;52.272;13.356;2023-08-30T01:11:22;19.10;75.90
37052;DHT22;22964;52.272;13.356;2023-08-30T01:13:56;19.10;76.20
37052;DHT22;22964;52.272;13.356;2023-08-30T01:16:25;19.10;76.10
37052;DHT22;22964;52.272;13.356;2023-08-30T01:18:56;19.00;75.80
37052;DHT22;22964;52.272;13.356;2023-08-30T01:21:48;19.00;75.90
37052;DHT22;22964;52.272;13.356;2023-08-30T01:24:25;19.00;76.10
37052;DHT22;22964;52.272;13.356;2023-08-30T01:27:10;19.00;76.00
37052;DHT22;22964;52.272;13.356;2023-08-30T01:29:37;18.90;76.20
37052;DHT22;22964;52.272;13.356;2023-08-30T01:32:05;18.90;75.90
37052;DHT22;22964;52.272;13.356;2023-08-30T01:34:33;18.90;76.00
37052;DHT22;22964;52.272;13.356;2023-08-30T01:37:00;18.80;76.10
37052;DHT22;22964;52.272;13.356;2023-08-30T01:39:27;18.80;76.10
37052;DHT22;22964;52.272;13.356;2023-08-30T01:41:54;18.80;77.00
37052;DHT22;22964;52.272;13.356;2023-08-30T01:44:27;18.80;76.30
37052;DHT22;22964;52.272;13.356;2023-08-30T01:46:53;18.80;76.40
37052;DHT22;22964;52.272;13.356;2023-08-30T01:49:20;18.80;76.40
37052;DHT22;22964;52.272;13.356;2023-08-30T01:51:46;18.80;76.40
37052;DHT22;22964;52.272;13.356;2023-08-30T01:54:17;18.70;76.30
37052;DHT22;22964;52.272;13.356;2023-08-30T01:56:44;18.70;76.60
37052;DHT22;22964;52.272;13.356;2023-08-30T01:59:11;18.70;76.40
37052;DHT22;22964;52.272;13.356;2023-08-30T02:01:37;18.70;76.50
37052;DHT22;22964;52.272;13.356;2023-08-30T02:04:03;18.70;76.70
37052;DHT22;22964;52.272;13.356;2023-08-30T02:06:42;18.70;76.70
37052;DHT22;22964;52.272;13.356;2023-08-30T02:09:18;18.60;76.70
37052;DHT22;22964;52.272;13.356;2023-08-30T02:11:48;18.60;77.00
37052;DHT22;22964;52.272;13.356;2023-08-30T02:14:17;18.60;77.00
37052;DHT22;22964;52.272;13.356;2023-08-30T02:16:45;18.60;76.90
37052;DHT22;22964;52.272;13.356;2023-08-30T02:19:12;18.60;77.00
37052;DHT22;22964;52.272;13.356;2023-08-30T02:21:40;18.60;77.00
37052;DHT22;22964;52.272;13.356;2023-08-30T02:24:06;18.60;77.10
37052;DHT22;22964;52.272;13.356;2023-08-30T02:26:32;18.50;77.00
37052;DHT22;22964;52.272;13.356;2023-08-30T02:28:58;18.50;77.00
37052;DHT22;22964;52.272;13.356;2023-08-30T02:31:23;18.50;76.90
37052;DHT22;22964;52.272;13.356;2023-08-30T02:33:49;18.50;77.00
37052;DHT22;22964;52.272;13.356;2023-08-30T02:36:15;18.50;77.00
37052;DHT22;22964;52.272;13.356;2023-08-30T02:38:40;18.50;77.00
37052;DHT22;22964;52.272;13.356;2023-08-30T02:41:06;18.50;77.00
37052;DHT22;22964;52.272;13.356;2023-08-30T02:43:32;18.40;76.90
37052;DHT22;22964;52.272;13.356;2023-08-30T02:45:57;18.50;77.00
37052;DHT22;22964;52.272;13.356;2023-08-30T02:48:23;18.40;77.00
37052;DHT22;22964;52.272;13.356;2023-08-30T02:50:49;18.40;77.00
37052;DHT22;22964;52.272;13.356;2023-08-30T02:53:15;18.40;77.10
37052;DHT22;22964;52.272;13.356;2023-08-30T02:55:40;18.40;77.10
37052;DHT22;22964;52.272;13.356;2023-08-30T02:58:06;18.40;77.20
37052;DHT22;22964;52.272;13.356;2023-08-30T03:00:32;18.40;78.00
37052;DHT22;22964;52.272;13.356;2023-08-30T03:03:00;18.40;77.20
37052;DHT22;22964;52.272;13.356;2023-08-30T03:05:26;18.30;77.00
37052;DHT22;22964;52.272;13.356;2023-08-30T03:07:53;18.40;77.10
37052;DHT22;22964;52.272;13.356;2023-08-30T03:10:19;18.30;77.00
37052;DHT22;22964;52.272;13.356;2023-08-30T03:12:46;18.30;77.00
37052;DHT22;22964;52.272;13.356;2023-08-30T03:15:11;18.30;77.00
37052;DHT22;22964;52.272;13.356;2023-08-30T03:17:37;18.30;77.00
37052;DHT22;22964;52.272;13.356;2023-08-30T03:20:04;18.30;77.00
37052;DHT22;22964;52.272;13.356;2023-08-30T03:22:31;18.20;77.00
37052;DHT22;22964;52.272;13.356;2023-08-30T03:24:57;18.20;77.10
37052;DHT22;22964;52.272;13.356;2023-08-30T03:27:24;18.20;77.00
37052;DHT22;22964;52.272;13.356;2023-08-30T03:29:49;18.20;77.00
37052;DHT22;22964;52.272;13.356;2023-08-30T03:32:17;18.20;77.00
37052;DHT22;22964;52.272;13.356;2023-08-30T03:34:47;18.10;77.00
37052;DHT22;22964;52.272;13.356;2023-08-30T03:37:14;18.10;77.10
37052;DHT22;22964;52.272;13.356;2023-08-30T03:39:40;18.10;77.90
37052;DHT22;22964;52.272;13.356;2023-08-30T03:42:07;18.10;77.00
37052;DHT22;22964;52.272;13.356;2023-08-30T03:44:33;18.10;77.00
37052;DHT22;22964;52.272;13.356;2023-08-30T03:46:58;18.10;77.10
37052;DHT22;22964;52.272;13.356;2023-08-30T03:49:24;18.10;77.20
37052;DHT22;22964;52.272;13.356;2023-08-30T03:51:50;18.00;77.30
37052;DHT22;22964;52.272;13.356;2023-08-30T03:54:16;18.10;77.30
37052;DHT22;22964;52.272;13.356;2023-08-30T03:56:45;18.10;77.30
37052;DHT22;22964;52.272;13.356;2023-08-30T03:59:11;18.00;77.30
37052;DHT22;22964;52.272;13.356;2023-08-30T04:01:38;18.10;77.60
37052;DHT22;22964;52.272;13.356;2023-08-30T04:04:04;18.00;77.50
37052;DHT22;22964;52.272;13.356;2023-08-30T04:06:31;18.00;77.50
37052;DHT22;22964;52.272;13.356;2023-08-30T04:08:56;18.00;77.50
37052;DHT22;22964;52.272;13.356;2023-08-30T04:11:23;18.00;77.60
37052;DHT22;22964;52.272;13.356;2023-08-30T04:13:48;18.10;77.70
37052;DHT22;22964;52.272;13.356;2023-08-30T04:16:15;18.00;77.70
37052;DHT22;22964;52.272;13.356;2023-08-30T04:18:41;18.10;78.10
37052;DHT22;22964;52.272;13.356;2023-08-30T04:21:06;18.10;78.30
37052;DHT22;22964;52.272;13.356;2023-08-30T04:23:34;18.00;78.30
37052;DHT22;22964;52.272;13.356;2023-08-30T04:26:00;18.10;78.50
37052;DHT22;22964;52.272;13.356;2023-08-30T04:28:26;18.10;78.60
37052;DHT22;22964;52.272;13.356;2023-08-30T04:30:55;18.20;79.10
37052;DHT22;22964;52.272;13.356;2023-08-30T04:33:22;18.20;78.80
37052;DHT22;22964;52.272;13.356;2023-08-30T04:35:51;18.20;78.80
37052;DHT22;22964;52.272;13.356;2023-08-30T04:38:17;18.20;79.10
37052;DHT22;22964;52.272;13.356;2023-08-30T04:40:43;18.30;78.90
37052;DHT22;22964;52.272;13.356;2023-08-30T04:43:09;18.30;78.80
37052;DHT22;22964;52.272;13.356;2023-08-30T04:45:35;18.30;78.60
37052;DHT22;22964;52.272;13.356;2023-08-30T04:48:04;18.40;78.70
37052;DHT22;22964;52.272;13.356;2023-08-30T04:50:32;18.40;78.60
37052;DHT22;22964;52.272;13.356;2023-08-30T04:52:59;18.40;78.40
37052;DHT22;22964;52.272;13.356;2023-08-30T04:55:25;18.40;78.50
37052;DHT22;22964;52.272;13.356;2023-08-30T04:57:51;18.40;78.60
37052;DHT22;22964;52.272;13.356;2023-08-30T05:00:18;18.50;78.60
37052;DHT22;22964;52.272;13.356;2023-08-30T05:02:44;18.50;78.70
37052;DHT22;22964;52.272;13.356;2023-08-30T05:05:13;18.50;78.80
37052;DHT22;22964;52.272;13.356;2023-08-30T05:07:39;18.50;78.70
37052;DHT22;22964;52.272;13.356;2023-08-30T05:10:05;18.50;78.60
37052;DHT22;22964;52.272;13.356;2023-08-30T05:12:33;18.50;78.80
37052;DHT22;22964;52.272;13.356;2023-08-30T05:15:00;18.60;79.10
37052;DHT22;22964;52.272;13.356;2023-08-30T05:17:27;18.60;79.10
37052;DHT22;22964;52.272;13.356;2023-08-30T05:19:54;18.70;79.20
37052;DHT22;22964;52.272;13.356;2023-08-30T05:22:20;18.70;79.30
37052;DHT22;22964;52.272;13.356;2023-08-30T05:24:47;18.70;79.20
37052;DHT22;22964;52.272;13.356;2023-08-30T05:27:12;18.70;79.10
37052;DHT22;22964;52.272;13.356;2023-08-30T05:29:40;18.80;79.10
37052;DHT22;22964;52.272;13.356;2023-08-30T05:32:06;18.80;79.90
37052;DHT22;22964;52.272;13.356;2023-08-30T05:35:07;18.80;79.00
37052;DHT22;22964;52.272;13.356;2023-08-30T05:37:52;18.80;78.90
37052;DHT22;22964;52.272;13.356;2023-08-30T05:40:24;18.90;79.00
37052;DHT22;22964;52.272;13.356;2023-08-30T05:42:50;18.90;79.00
37052;DHT22;22964;52.272;13.356;2023-08-30T05:45:16;18.90;79.10
37052;DHT22;22964;52.272;13.356;2023-08-30T05:47:41;18.90;79.20
37052;DHT22;22964;52.272;13.356;2023-08-30T05:50:08;18.90;79.20
37052;DHT22;22964;52.272;13.356;2023-08-30T05:52:34;18.90;79.20
37052;DHT22;22964;52.272;13.356;2023-08-30T05:54:59;19.00;79.20
37052;DHT22;22964;52.272;13.356;2023-08-30T05:57:26;19.00;79.40
37052;DHT22;22964;52.272;13.356;2023-08-30T05:59:54;19.00;79.40
37052;DHT22;22964;52.272;13.356;2023-08-30T06:02:20;19.00;79.40
37052;DHT22;22964;52.272;13.356;2023-08-30T06:04:46;19.10;80.50
37052;DHT22;22964;52.272;13.356;2023-08-30T06:07:11;19.10;79.80
37052;DHT22;22964;52.272;13.356;2023-08-30T06:09:37;19.20;80.00
37052;DHT22;22964;52.272;13.356;2023-08-30T06:12:03;19.20;80.00
37052;DHT22;22964;52.272;13.356;2023-08-30T06:14:29;19.20;79.70
37052;DHT22;22964;52.272;13.356;2023-08-30T06:16:54;19.30;79.70
37052;DHT22;22964;52.272;13.356;2023-08-30T06:19:20;19.30;79.60
37052;DHT22;22964;52.272;13.356;2023-08-30T06:21:46;19.30;79.50
37052;DHT22;22964;52.272;13.356;2023-08-30T06:24:11;19.40;79.70
37052;DHT22;22964;52.272;13.356;2023-08-30T06:26:37;19.40;79.70
37052;DHT22;22964;52.272;13.356;2023-08-30T06:29:03;19.50;79.60
37052;DHT22;22964;52.272;13.356;2023-08-30T06:31:29;19.40;79.40
37052;DHT22;22964;52.272;13.356;2023-08-30T06:33:55;19.50;79.40
37052;DHT22;22964;52.272;13.356;2023-08-30T06:36:20;19.50;79.40
37052;DHT22;22964;52.272;13.356;2023-08-30T06:38:49;19.50;79.50
37052;DHT22;22964;52.272;13.356;2023-08-30T06:41:14;19.60;79.60
37052;DHT22;22964;52.272;13.356;2023-08-30T06:43:40;19.60;79.50
37052;DHT22;22964;52.272;13.356;2023-08-30T06:46:06;19.70;79.60
37052;DHT22;22964;52.272;13.356;2023-08-30T06:48:31;19.70;79.50
37052;DHT22;22964;52.272;13.356;2023-08-30T06:50:58;19.70;79.70
37052;DHT22;22964;52.272;13.356;2023-08-30T06:53:26;19.80;79.60
37052;DHT22;22964;52.272;13.356;2023-08-30T06:55:59;19.90;79.60
37052;DHT22;22964;52.272;13.356;2023-08-30T06:58:26;19.90;79.70
37052;DHT22;22964;52.272;13.356;2023-08-30T07:00:52;20.00;79.70
37052;DHT22;22964;52.272;13.356;2023-08-30T07:03:18;20.00;79.50
37052;DHT22;22964;52.272;13.356;2023-08-30T07:05:44;20.10;79.40
37052;DHT22;22964;52.272;13.356;2023-08-30T07:08:10;20.20;79.50
37052;DHT22;22964;52.272;13.356;2023-08-30T07:10:36;20.20;79.50
37052;DHT22;22964;52.272;13.356;2023-08-30T07:13:01;20.30;79.30
37052;DHT22;22964;52.272;13.356;2023-08-30T07:15:27;20.40;79.20
37052;DHT22;22964;52.272;13.356;2023-08-30T07:17:53;20.50;79.10
37052;DHT22;22964;52.272;13.356;2023-08-30T07:20:19;20.60;78.90
37052;DHT22;22964;52.272;13.356;2023-08-30T07:22:45;20.60;78.60
37052;DHT22;22964;52.272;13.356;2023-08-30T07:25:10;20.70;78.30
37052;DHT22;22964;52.272;13.356;2023-08-30T07:27:37;20.80;78.40
37052;DHT22;22964;52.272;13.356;2023-08-30T07:30:03;20.80;77.40
37052;DHT22;22964;52.272;13.356;2023-08-30T07:32:30;20.90;77.20
37052;DHT22;22964;52.272;13.356;2023-08-30T07:34:55;20.90;77.00
37052;DHT22;22964;52.272;13.356;2023-08-30T07:37:21;21.00;76.90
37052;DHT22;22964;52.272;13.356;2023-08-30T07:39:48;21.00;76.90
37052;DHT22;22964;52.272;13.356;2023-08-30T07:42:14;21.10;77.50
37052;DHT22;22964;52.272;13.356;2023-08-30T07:44:42;21.10;76.50
37052;DHT22;22964;52.272;13.356;2023-08-30T07:47:08;21.10;76.60
37052;DHT22;22964;52.272;13.356;2023-08-30T07:49:34;21.20;76.50
37052;DHT22;22964;52.272;13.356;2023-08-30T07:51:59;21.30;76.10
37052;DHT22;22964;52.272;13.356;2023-08-30T07:54:25;21.30;75.90
37052;DHT22;22964;52.272;13.356;2023-08-30T07:56:50;21.30;75.90
37052;DHT22;22964;52.272;13.356;2023-08-30T07:59:16;21.40;75.80
37052;DHT22;22964;52.272;13.356;2023-08-30T08:01:42;21.40;75.50
37052;DHT22;22964;52.272;13.356;2023-08-30T08:04:07;21.50;75.20
37052;DHT22;22964;52.272;13.356;2023-08-30T08:06:33;21.50;75.10
37052;DHT22;22964;52.272;13.356;2023-08-30T08:08:59;21.50;74.70
37052;DHT22;22964;52.272;13.356;2023-08-30T08:11:25;21.60;74.50
37052;DHT22;22964;52.272;13.356;2023-08-30T08:13:51;21.70;74.30
37052;DHT22;22964;52.272;13.356;2023-08-30T08:16:17;21.70;74.10
37052;DHT22;22964;52.272;13.356;2023-08-30T08:18:43;21.80;74.10
37052;DHT22;22964;52.272;13.356;2023-08-30T08:21:08;21.80;74.30
37052;DHT22;22964;52.272;13.356;2023-08-30T08:23:34;21.90;74.40
37052;DHT22;22964;52.272;13.356;2023-08-30T08:26:01;21.90;74.50
37052;DHT22;22964;52.272;13.356;2023-08-30T08:28:28;22.00;74.60
37052;DHT22;22964;52.272;13.356;2023-08-30T08:30:54;22.10;74.70
37052;DHT22;22964;52.272;13.356;2023-08-30T08:33:20;22.20;74.50
37052;DHT22;22964;52.272;13.356;2023-08-30T08:35:49;22.30;74.50
37052;DHT22;22964;52.272;13.356;2023-08-30T08:38:14;22.30;74.30
37052;DHT22;22964;52.272;13.356;2023-08-30T08:40:40;22.40;74.20
37052;DHT22;22964;52.272;13.356;2023-08-30T08:43:06;22.50;74.00
37052;DHT22;22964;52.272;13.356;2023-08-30T08:45:35;22.60;73.60
37052;DHT22;22964;52.272;13.356;2023-08-30T08:48:04;22.70;72.60
37052;DHT22;22964;52.272;13.356;2023-08-30T08:50:32;22.80;72.90
37052;DHT22;22964;52.272;13.356;2023-08-30T08:52:58;22.90;72.20
37052;DHT22;22964;52.272;13.356;2023-08-30T08:55:26;23.10;73.20
37052;DHT22;22964;52.272;13.356;2023-08-30T08:57:56;23.10;71.60
37052;DHT22;22964;52.272;13.356;2023-08-30T09:00:23;23.30;71.60
37052;DHT22;22964;52.272;13.356;2023-08-30T09:02:49;23.40;71.00
37052;DHT22;22964;52.272;13.356;2023-08-30T09:05:16;23.60;71.00
37052;DHT22;22964;52.272;13.356;2023-08-30T09:07:43;23.70;70.80
37052;DHT22;22964;52.272;13.356;2023-08-30T09:10:10;23.80;70.20
37052;DHT22;22964;52.272;13.356;2023-08-30T09:12:36;24.00;70.50
37052;DHT22;22964;52.272;13.356;2023-08-30T09:15:02;24.10;70.40
37052;DHT22;22964;52.272;13.356;2023-08-30T09:17:39;24.20;70.60
37052;DHT22;22964;52.272;13.356;2023-08-30T09:20:10;24.40;68.00
37052;DHT22;22964;52.272;13.356;2023-08-30T09:22:40;24.50;68.10
37052;DHT22;22964;52.272;13.356;2023-08-30T09:25:10;24.60;66.40
37052;DHT22;22964;52.272;13.356;2023-08-30T09:27:36;24.70;65.60
37052;DHT22;22964;52.272;13.356;2023-08-30T09:30:07;24.80;66.30
37052;DHT22;22964;52.272;13.356;2023-08-30T09:32:40;24.90;64.80
37052;DHT22;22964;52.272;13.356;2023-08-30T09:35:07;24.90;64.90
37052;DHT22;22964;52.272;13.356;2023-08-30T09:37:33;25.00;65.40
37052;DHT22;22964;52.272;13.356;2023-08-30T09:40:00;25.10;64.80
37052;DHT22;22964;52.272;13.356;2023-08-30T09:42:26;25.20;64.90
37052;DHT22;22964;52.272;13.356;2023-08-30T09:44:52;25.20;64.20
37052;DHT22;22964;52.272;13.356;2023-08-30T09:47:18;25.30;63.70
37052;DHT22;22964;52.272;13.356;2023-08-30T09:49:45;25.30;63.70
37052;DHT22;22964;52.272;13.356;2023-08-30T09:52:15;25.40;63.80
37052;DHT22;22964;52.272;13.356;2023-08-30T09:54:42;25.40;63.80
37052;DHT22;22964;52.272;13.356;2023-08-30T09:57:12;25.50;63.10
37052;DHT22;22964;52.272;13.356;2023-08-30T09:59:39;25.60;62.50
37052;DHT22;22964;52.272;13.356;2023-08-30T10:02:05;25.70;63.20
37052;DHT22;22964;52.272;13.356;2023-08-30T10:04:36;25.70;62.10
37052;DHT22;22964;52.272;13.356;2023-08-30T10:07:03;25.80;61.50
37052;DHT22;22964;52.272;13.356;2023-08-30T10:09:30;25.90;61.80
37052;DHT22;22964;52.272;13.356;2023-08-30T10:11:58;25.90;61.00
37052;DHT22;22964;52.272;13.356;2023-08-30T10:14:23;25.90;60.40
37052;DHT22;22964;52.272;13.356;2023-08-30T10:16:51;26.00;61.00
37052;DHT22;22964;52.272;13.356;2023-08-30T10:19:26;26.00;60.00
37052;DHT22;22964;52.272;13.356;2023-08-30T10:22:05;26.00;59.20
37052;DHT22;22964;52.272;13.356;2023-08-30T10:24:54;26.10;58.00
37052;DHT22;22964;52.272;13.356;2023-08-30T10:27:22;26.10;57.50
37052;DHT22;22964;52.272;13.356;2023-08-30T10:29:50;26.10;59.30
37052;DHT22;22964;52.272;13.356;2023-08-30T10:32:20;26.10;59.70
37052;DHT22;22964;52.272;13.356;2023-08-30T10:34:50;26.20;59.00
37052;DHT22;22964;52.272;13.356;2023-08-30T10:37:26;26.30;59.30
37052;DHT22;22964;52.272;13.356;2023-08-30T10:39:52;26.40;57.40
37052;DHT22;22964;52.272;13.356;2023-08-30T10:42:22;26.50;58.70
37052;DHT22;22964;52.272;13.356;2023-08-30T10:44:56;26.70;58.50
37052;DHT22;22964;52.272;13.356;2023-08-30T10:47:28;26.80;57.90
37052;DHT22;22964;52.272;13.356;2023-08-30T10:49:55;26.90;57.70
37052;DHT22;22964;52.272;13.356;2023-08-30T10:52:22;27.10;58.10
37052;DHT22;22964;52.272;13.356;2023-08-30T10:54:48;27.20;58.20
37052;DHT22;22964;52.272;13.356;2023-08-30T10:57:15;27.30;57.30
37052;DHT22;22964;52.272;13.356;2023-08-30T11:02:37;27.40;54.70
37052;DHT22;22964;52.272;13.356;2023-08-30T11:05:06;27.50;55.20
37052;DHT22;22964;52.272;13.356;2023-08-30T11:07:33;27.40;54.90
37052;DHT22;22964;52.272;13.356;2023-08-30T11:09:58;27.40;54.90
37052;DHT22;22964;52.272;13.356;2023-08-30T11:12:25;27.40;55.00
37052;DHT22;22964;52.272;13.356;2023-08-30T11:14:54;27.40;54.80
37052;DHT22;22964;52.272;13.356;2023-08-30T11:17:20;27.40;53.30
37052;DHT22;22964;52.272;13.356;2023-08-30T11:19:48;27.30;53.80
37052;DHT22;22964;52.272;13.356;2023-08-30T11:22:15;27.20;53.30
37052;DHT22;22964;52.272;13.356;2023-08-30T11:24:42;27.20;53.30
37052;DHT22;22964;52.272;13.356;2023-08-30T11:27:09;27.10;53.10
37052;DHT22;22964;52.272;13.356;2023-08-30T11:29:35;27.00;53.20
37052;DHT22;22964;52.272;13.356;2023-08-30T11:32:01;26.90;53.60
37052;DHT22;22964;52.272;13.356;2023-08-30T11:34:27;26.90;53.40
37052;DHT22;22964;52.272;13.356;2023-08-30T11:36:53;26.90;53.70
37052;DHT22;22964;52.272;13.356;2023-08-30T11:39:19;26.90;54.00
37052;DHT22;22964;52.272;13.356;2023-08-30T11:41:46;27.00;54.30
37052;DHT22;22964;52.272;13.356;2023-08-30T11:44:12;27.10;54.30
37052;DHT22;22964;52.272;13.356;2023-08-30T11:46:38;27.10;53.50
37052;DHT22;22964;52.272;13.356;2023-08-30T11:49:03;27.20;53.60
37052;DHT22;22964;52.272;13.356;2023-08-30T11:51:29;27.30;53.30
37052;DHT22;22964;52.272;13.356;2023-08-30T11:53:56;27.30;53.00
37052;DHT22;22964;52.272;13.356;2023-08-30T11:56:25;27.40;52.70
37052;DHT22;22964;52.272;13.356;2023-08-30T11:58:51;27.40;52.00
37052;DHT22;22964;52.272;13.356;2023-08-30T12:01:18;27.40;52.80
37052;DHT22;22964;52.272;13.356;2023-08-30T12:03:45;27.30;51.80
37052;DHT22;22964;52.272;13.356;2023-08-30T12:06:16;27.30;51.80
37052;DHT22;22964;52.272;13.356;2023-08-30T12:08:42;27.30;51.70
37052;DHT22;22964;52.272;13.356;2023-08-30T12:11:31;27.10;51.50
37052;DHT22;22964;52.272;13.356;2023-08-30T12:14:02;27.10;50.60
37052;DHT22;22964;52.272;13.356;2023-08-30T12:16:28;27.00;51.00
37052;DHT22;22964;52.272;13.356;2023-08-30T12:18:53;27.00;51.50
37052;DHT22;22964;52.272;13.356;2023-08-30T12:21:19;26.90;50.60
37052;DHT22;22964;52.272;13.356;2023-08-30T12:23:45;26.80;50.70
37052;DHT22;22964;52.272;13.356;2023-08-30T12:26:11;26.70;50.50
37052;DHT22;22964;52.272;13.356;2023-08-30T12:28:38;26.50;50.60
37052;DHT22;22964;52.272;13.356;2023-08-30T12:31:04;26.50;50.50
37052;DHT22;22964;52.272;13.356;2023-08-30T12:33:30;26.40;50.90
37052;DHT22;22964;52.272;13.356;2023-08-30T12:35:57;26.40;51.00
37052;DHT22;22964;52.272;13.356;2023-08-30T12:38:24;26.30;50.90
37052;DHT22;22964;52.272;13.356;2023-08-30T12:40:51;26.30;51.20
37052;DHT22;22964;52.272;13.356;2023-08-30T12:43:18;26.30;51.10
37052;DHT22;22964;52.272;13.356;2023-08-30T12:45:45;26.30;51.00
37052;DHT22;22964;52.272;13.356;2023-08-30T12:48:13;26.30;51.40
37052;DHT22;22964;52.272;13.356;2023-08-30T12:50:44;26.30;51.70
37052;DHT22;22964;52.272;13.356;2023-08-30T12:53:11;26.30;51.20
37052;DHT22;22964;52.272;13.356;2023-08-30T12:55:37;26.40;52.20
37052;DHT22;22964;52.272;13.356;2023-08-30T12:58:06;26.40;52.60
37052;DHT22;22964;52.272;13.356;2023-08-30T13:00:33;26.40;53.40
37052;DHT22;22964;52.272;13.356;2023-08-30T13:02:59;26.40;53.50
37052;DHT22;22964;52.272;13.356;2023-08-30T13:05:25;26.40;53.00
37052;DHT22;22964;52.272;13.356;2023-08-30T13:07:51;26.40;53.10
37052;DHT22;22964;52.272;13.356;2023-08-30T13:10:17;26.50;53.00
37052;DHT22;22964;52.272;13.356;2023-08-30T13:12:43;26.40;52.70
37052;DHT22;22964;52.272;13.356;2023-08-30T13:15:09;26.40;52.60
37052;DHT22;22964;52.272;13.356;2023-08-30T13:17:35;26.40;52.60
37052;DHT22;22964;52.272;13.356;2023-08-30T13:20:01;26.40;52.60
37052;DHT22;22964;52.272;13.356;2023-08-30T13:22:27;26.40;52.90
37052;DHT22;22964;52.272;13.356;2023-08-30T13:24:53;26.40;53.40
37052;DHT22;22964;52.272;13.356;2023-08-30T13:27:19;26.50;53.20
37052;DHT22;22964;52.272;13.356;2023-08-30T13:29:45;26.60;53.30
37052;DHT22;22964;52.272;13.356;2023-08-30T13:32:11;26.80;53.30
37052;DHT22;22964;52.272;13.356;2023-08-30T13:34:38;26.90;53.80
37052;DHT22;22964;52.272;13.356;2023-08-30T13:37:04;27.10;53.70
37052;DHT22;22964;52.272;13.356;2023-08-30T13:39:30;27.30;53.30
37052;DHT22;22964;52.272;13.356;2023-08-30T13:41:56;27.50;53.70
37052;DHT22;22964;52.272;13.356;2023-08-30T13:44:22;27.70;53.20
37052;DHT22;22964;52.272;13.356;2023-08-30T13:46:47;28.00;53.10
37052;DHT22;22964;52.272;13.356;2023-08-30T13:49:15;28.30;53.20
37052;DHT22;22964;52.272;13.356;2023-08-30T13:51:41;28.60;52.20
37052;DHT22;22964;52.272;13.356;2023-08-30T13:54:07;28.80;51.30
37052;DHT22;22964;52.272;13.356;2023-08-30T13:56:33;29.10;50.80
37052;DHT22;22964;52.272;13.356;2023-08-30T13:58:59;29.20;50.00
37052;DHT22;22964;52.272;13.356;2023-08-30T14:01:25;29.30;49.60
37052;DHT22;22964;52.272;13.356;2023-08-30T14:03:50;29.40;48.90
37052;DHT22;22964;52.272;13.356;2023-08-30T14:06:16;29.50;48.60
37052;DHT22;22964;52.272;13.356;2023-08-30T14:08:43;29.50;48.50
37052;DHT22;22964;52.272;13.356;2023-08-30T14:11:09;29.40;47.70
37052;DHT22;22964;52.272;13.356;2023-08-30T14:13:34;29.40;47.80
37052;DHT22;22964;52.272;13.356;2023-08-30T14:16:01;29.30;47.60
37052;DHT22;22964;52.272;13.356;2023-08-30T14:18:28;29.20;47.30
37052;DHT22;22964;52.272;13.356;2023-08-30T14:20:57;29.10;47.20
37052;DHT22;22964;52.272;13.356;2023-08-30T14:23:27;29.00;46.40
37052;DHT22;22964;52.272;13.356;2023-08-30T14:26:01;28.90;46.60
37052;DHT22;22964;52.272;13.356;2023-08-30T14:28:27;28.70;46.40
37052;DHT22;22964;52.272;13.356;2023-08-30T14:30:53;28.60;46.70
37052;DHT22;22964;52.272;13.356;2023-08-30T14:33:20;28.50;46.80
37052;DHT22;22964;52.272;13.356;2023-08-30T14:35:46;28.40;46.60
37052;DHT22;22964;52.272;13.356;2023-08-30T14:38:12;28.30;46.80
37052;DHT22;22964;52.272;13.356;2023-08-30T14:40:38;28.20;46.90
37052;DHT22;22964;52.272;13.356;2023-08-30T14:43:04;28.10;47.10
37052;DHT22;22964;52.272;13.356;2023-08-30T14:45:30;28.00;47.10
37052;DHT22;22964;52.272;13.356;2023-08-30T14:47:56;28.00;47.30
37052;DHT22;22964;52.272;13.356;2023-08-30T14:50:22;27.90;47.10
37052;DHT22;22964;52.272;13.356;2023-08-30T14:52:48;27.80;47.00
37052;DHT22;22964;52.272;13.356;2023-08-30T14:55:15;27.70;46.90
37052;DHT22;22964;52.272;13.356;2023-08-30T14:57:40;27.60;47.10
37052;DHT22;22964;52.272;13.356;2023-08-30T15:00:06;27.40;47.20
37052;DHT22;22964;52.272;13.356;2023-08-30T15:02:33;27.30;47.20
37052;DHT22;22964;52.272;13.356;2023-08-30T15:04:59;27.20;47.30
37052;DHT22;22964;52.272;13.356;2023-08-30T15:07:25;27.10;47.40
37052;DHT22;22964;52.272;13.356;2023-08-30T15:09:50;26.90;47.50
37052;DHT22;22964;52.272;13.356;2023-08-30T15:12:16;26.90;47.90
37052;DHT22;22964;52.272;13.356;2023-08-30T15:14:42;26.80;48.10
37052;DHT22;22964;52.272;13.356;2023-08-30T15:17:09;26.70;48.10